createdAt,value
2017-11-25T00:01:40.794Z,94.08
2017-11-25T00:04:07.160Z,93.54
2017-11-25T00:06:33.773Z,93.61
2017-11-25T00:09:00.429Z,93.97
2017-11-25T00:11:27.054Z,94.26
2017-11-25T00:13:53.449Z,94.54
2017-11-25T00:16:19.891Z,94.90
2017-11-25T00:18:46.332Z,95.07
2017-11-25T00:21:12.754Z,94.23
2017-11-25T00:23:39.217Z,94.05
2017-11-25T00:26:05.609Z,94.35
2017-11-25T00:28:32.050Z,95.01
2017-11-25T00:30:58.737Z,95.95
2017-11-25T00:33:25.231Z,95.46
2017-11-25T00:35:51.675Z,95.12
2017-11-25T00:38:17.936Z,94.84
2017-11-25T00:40:44.320Z,94.87
2017-11-25T00:43:10.895Z,94.92
2017-11-25T00:45:37.391Z,94.74
2017-11-25T00:48:03.965Z,94.79
2017-11-25T00:50:30.617Z,94.96
2017-11-25T00:52:57.239Z,95.02
2017-11-25T00:55:23.688Z,94.87
2017-11-25T00:57:50.121Z,94.82
2017-11-25T01:00:16.743Z,94.94
2017-11-25T01:02:43.182Z,94.24
2017-11-25T01:05:09.625Z,100.00
2017-11-25T01:07:36.241Z,95.00
2017-11-25T01:10:02.667Z,95.85
2017-11-25T01:12:29.097Z,95.63
2017-11-25T01:14:55.769Z,95.75
2017-11-25T01:17:22.383Z,95.83
2017-11-25T01:19:48.636Z,95.81
2017-11-25T01:22:15.264Z,95.56
2017-11-25T01:24:41.659Z,95.66
2017-11-25T01:27:08.000Z,95.69
2017-11-25T01:29:34.445Z,95.61
2017-11-25T01:32:01.009Z,95.99
2017-11-25T01:34:27.624Z,95.44
2017-11-25T01:36:54.286Z,95.52
2017-11-25T01:39:20.905Z,95.54
2017-11-25T01:41:47.350Z,95.49
2017-11-25T01:44:13.841Z,95.53
2017-11-25T01:46:40.291Z,95.26
2017-11-25T01:49:06.870Z,95.01
2017-11-25T01:51:33.500Z,95.17
2017-11-25T01:54:00.131Z,95.41
2017-11-25T01:56:26.648Z,95.34
2017-11-25T01:58:53.072Z,95.07
2017-11-25T02:01:19.483Z,95.28
2017-11-25T02:03:46.282Z,95.87
2017-11-25T02:06:12.915Z,95.84
2017-11-25T02:08:39.534Z,95.78
2017-11-25T02:11:05.993Z,95.65
2017-11-25T02:13:32.631Z,95.70
2017-11-25T02:15:59.256Z,95.69
2017-11-25T02:18:25.905Z,95.46
2017-11-25T02:20:52.526Z,95.54
2017-11-25T02:23:18.938Z,95.45
2017-11-25T02:25:45.277Z,95.27
2017-11-25T02:28:11.701Z,95.16
2017-11-25T02:30:38.135Z,94.98
2017-11-25T02:33:04.577Z,95.09
2017-11-25T02:35:31.095Z,94.94
2017-11-25T02:37:57.538Z,95.01
2017-11-25T02:40:23.975Z,95.24
2017-11-25T02:42:50.652Z,95.25
2017-11-25T02:45:17.289Z,95.19
2017-11-25T02:47:43.936Z,94.94
2017-11-25T02:50:10.544Z,94.77
2017-11-25T02:52:36.983Z,94.68
2017-11-25T02:55:03.624Z,94.66
2017-11-25T02:57:30.122Z,94.62
2017-11-25T02:59:56.586Z,94.50
2017-11-25T03:02:22.999Z,94.61
2017-11-25T03:04:49.443Z,94.61
2017-11-25T03:07:15.959Z,94.26
2017-11-25T03:09:42.546Z,94.34
2017-11-25T03:12:09.164Z,93.77
2017-11-25T03:14:35.583Z,94.00
2017-11-25T03:17:02.002Z,94.18
2017-11-25T03:19:28.689Z,93.90
2017-11-25T03:21:55.310Z,93.72
2017-11-25T03:24:21.964Z,93.74
2017-11-25T03:26:48.591Z,93.73
2017-11-25T03:29:14.984Z,93.67
2017-11-25T03:31:41.428Z,93.93
2017-11-25T03:34:08.112Z,93.85
2017-11-25T03:36:34.410Z,93.95
2017-11-25T03:39:00.769Z,94.47
2017-11-25T03:41:27.407Z,94.58
2017-11-25T03:43:54.034Z,94.10
2017-11-25T03:46:20.452Z,94.01
2017-11-25T03:48:46.969Z,93.84
2017-11-25T03:51:13.409Z,93.92
2017-11-25T03:53:39.851Z,93.91
2017-11-25T03:56:06.269Z,94.05
2017-11-25T03:58:32.711Z,94.09
2017-11-25T04:00:59.152Z,94.14
2017-11-25T04:03:25.668Z,94.20
2017-11-25T04:05:52.010Z,93.97
2017-11-25T04:08:18.380Z,94.31
2017-11-25T04:10:44.994Z,94.20
2017-11-25T04:13:11.409Z,93.88
2017-11-25T04:15:37.850Z,93.85
2017-11-25T04:18:04.269Z,94.07
2017-11-25T04:20:30.713Z,94.38
2017-11-25T04:22:57.151Z,94.04
2017-11-25T04:25:23.624Z,94.35
2017-11-25T04:27:50.234Z,94.62
2017-11-25T04:30:16.675Z,94.90
2017-11-25T04:32:43.330Z,94.87
2017-11-25T04:35:09.835Z,94.78
2017-11-25T04:37:36.251Z,94.70
2017-11-25T04:40:02.695Z,94.65
2017-11-25T04:42:29.137Z,94.03
2017-11-25T04:44:55.528Z,93.62
2017-11-25T04:47:21.996Z,93.63
2017-11-25T04:49:48.437Z,93.92
2017-11-25T04:52:14.852Z,93.22
2017-11-25T04:54:41.294Z,93.35
2017-11-25T04:57:07.735Z,93.41
2017-11-25T04:59:34.093Z,93.41
2017-11-25T05:02:00.723Z,93.45
2017-11-25T05:04:27.060Z,93.50
2017-11-25T05:06:53.454Z,93.61
2017-11-25T05:09:19.895Z,93.94
2017-11-25T05:11:46.336Z,94.13
2017-11-25T05:14:12.751Z,94.39
2017-11-25T05:16:39.664Z,94.51
2017-11-25T05:19:06.235Z,94.71
2017-11-25T05:21:32.576Z,94.70
2017-11-25T05:23:59.089Z,94.89
2017-11-25T05:26:25.561Z,94.80
2017-11-25T05:28:51.978Z,94.90
2017-11-25T05:31:18.656Z,94.50
2017-11-25T05:33:45.295Z,94.62
2017-11-25T05:36:11.942Z,94.92
2017-11-25T05:38:38.420Z,94.82
2017-11-25T05:41:05.002Z,94.89
2017-11-25T05:43:31.642Z,94.85
2017-11-25T05:45:58.099Z,94.98
2017-11-25T05:48:24.560Z,94.95
2017-11-25T05:50:51.156Z,95.33
2017-11-25T05:53:17.647Z,95.13
2017-11-25T05:55:44.087Z,94.91
2017-11-25T05:58:10.603Z,94.41
2017-11-25T06:00:37.290Z,93.76
2017-11-25T06:03:03.791Z,93.63
2017-11-25T06:05:30.230Z,93.66
2017-11-25T06:07:56.743Z,93.76
2017-11-25T06:10:23.187Z,93.84
2017-11-25T06:12:49.633Z,93.73
2017-11-25T06:15:16.299Z,94.20
2017-11-25T06:17:42.913Z,94.67
2017-11-25T06:20:09.330Z,94.71
2017-11-25T06:22:35.772Z,94.29
2017-11-25T06:25:02.241Z,93.16
2017-11-25T06:27:28.878Z,92.91
2017-11-25T06:29:55.310Z,93.56
2017-11-25T06:32:21.934Z,93.43
2017-11-25T06:34:48.357Z,93.96
2017-11-25T06:37:15.014Z,93.37
2017-11-25T06:39:41.635Z,94.02
2017-11-25T06:42:07.890Z,93.33
2017-11-25T06:44:34.493Z,92.88
2017-11-25T06:47:00.922Z,92.82
2017-11-25T06:49:27.194Z,92.26
2017-11-25T06:51:53.819Z,91.60
2017-11-25T06:54:20.464Z,90.78
2017-11-25T06:56:46.853Z,90.99
2017-11-25T06:59:13.114Z,91.22
2017-11-25T07:01:39.764Z,91.26
2017-11-25T07:04:06.207Z,91.36
2017-11-25T07:06:33.171Z,90.93
2017-11-25T07:08:59.478Z,90.35
2017-11-25T07:11:25.859Z,90.33
2017-11-25T07:13:52.546Z,90.52
2017-11-25T07:16:19.185Z,89.33
2017-11-25T07:18:45.818Z,88.73
2017-11-25T07:21:12.462Z,87.79
2017-11-25T07:23:39.099Z,87.76
2017-11-25T07:26:05.612Z,87.58
2017-11-25T07:28:32.047Z,88.03
2017-11-25T07:30:58.465Z,87.93
2017-11-25T07:33:24.837Z,87.54
2017-11-25T07:35:51.344Z,88.00
2017-11-25T07:38:17.909Z,87.91
2017-11-25T07:40:44.405Z,87.12
2017-11-25T07:43:10.920Z,87.17
2017-11-25T07:45:37.262Z,87.46
2017-11-25T07:48:04.049Z,86.93
2017-11-25T07:50:30.670Z,87.02
2017-11-25T07:52:57.125Z,87.50
2017-11-25T07:55:23.731Z,88.01
2017-11-25T07:57:50.272Z,87.36
2017-11-25T08:00:16.631Z,88.83
2017-11-25T08:02:43.249Z,87.26
2017-11-25T08:05:09.527Z,88.27
2017-11-25T08:07:36.114Z,88.38
2017-11-25T08:10:02.753Z,88.65
2017-11-25T08:12:29.419Z,87.01
2017-11-25T08:14:56.058Z,86.37
2017-11-25T08:17:22.531Z,85.57
2017-11-25T08:19:49.073Z,86.49
2017-11-25T08:22:15.535Z,86.48
2017-11-25T08:24:42.180Z,86.03
2017-11-25T08:27:08.463Z,86.76
2017-11-25T08:29:35.042Z,85.43
2017-11-25T08:32:01.672Z,85.12
2017-11-25T08:34:27.945Z,84.96
2017-11-25T08:36:54.356Z,84.82
2017-11-25T08:39:20.760Z,85.03
2017-11-25T08:41:47.396Z,85.03
2017-11-25T08:44:13.699Z,85.29
2017-11-25T08:46:40.253Z,86.46
2017-11-25T08:49:06.728Z,85.58
2017-11-25T08:51:33.311Z,84.81
2017-11-25T08:53:59.757Z,84.53
2017-11-25T08:56:26.460Z,83.50
2017-11-25T08:58:52.695Z,82.65
2017-11-25T09:01:19.076Z,83.49
2017-11-25T09:03:45.740Z,81.49
2017-11-25T09:06:12.152Z,81.02
2017-11-25T09:08:38.556Z,82.90
2017-11-25T09:11:05.256Z,81.94
2017-11-25T09:13:31.869Z,81.27
2017-11-25T09:15:58.120Z,82.39
2017-11-25T09:18:24.541Z,82.17
2017-11-25T09:20:50.982Z,81.43
2017-11-25T09:23:17.355Z,81.11
2017-11-25T09:25:44.048Z,81.47
2017-11-25T09:28:10.510Z,81.50
2017-11-25T09:30:37.109Z,81.97
2017-11-25T09:33:03.760Z,82.75
2017-11-25T09:35:30.389Z,81.35
2017-11-25T09:37:57.002Z,81.46
2017-11-25T09:40:23.449Z,81.54
2017-11-25T09:42:50.108Z,80.75
2017-11-25T09:45:16.632Z,80.85
2017-11-25T09:47:43.148Z,81.64
2017-11-25T09:50:09.567Z,81.96
2017-11-25T09:52:36.007Z,81.81
2017-11-25T09:55:02.274Z,80.69
2017-11-25T09:57:28.890Z,81.33
2017-11-25T09:59:55.348Z,80.37
2017-11-25T10:02:21.785Z,79.57
2017-11-25T10:04:48.391Z,79.42
2017-11-25T10:07:14.809Z,79.31
2017-11-25T10:09:41.081Z,79.96
2017-11-25T10:12:07.618Z,78.91
2017-11-25T10:14:33.955Z,79.08
2017-11-25T10:17:00.225Z,79.52
2017-11-25T10:19:26.666Z,80.81
2017-11-25T10:21:53.111Z,80.33
2017-11-25T10:24:19.626Z,81.47
2017-11-25T10:26:45.967Z,80.12
2017-11-25T10:29:12.411Z,79.21
2017-11-25T10:31:38.778Z,79.49
2017-11-25T10:34:05.262Z,78.48
2017-11-25T10:36:31.688Z,79.57
2017-11-25T10:38:58.078Z,79.98
2017-11-25T10:41:24.569Z,80.35
2017-11-25T10:43:51.013Z,80.21
2017-11-25T10:46:17.379Z,81.29
2017-11-25T10:48:43.993Z,81.57
2017-11-25T10:51:10.433Z,80.92
2017-11-25T10:53:37.084Z,80.12
2017-11-25T10:56:03.319Z,80.22
2017-11-25T10:58:29.938Z,80.80
2017-11-25T11:00:57.381Z,80.37
2017-11-25T11:03:23.794Z,80.39
2017-11-25T11:05:50.237Z,80.70
2017-11-25T11:08:16.701Z,82.08
2017-11-25T11:10:43.117Z,82.62
2017-11-25T11:13:09.381Z,81.68
2017-11-25T11:15:35.813Z,80.79
2017-11-25T11:18:02.418Z,81.64
2017-11-25T11:20:28.939Z,82.03
2017-11-25T11:22:55.308Z,82.59
2017-11-25T11:25:21.822Z,82.65
2017-11-25T11:27:48.340Z,82.18
2017-11-25T11:30:14.778Z,82.31
2017-11-25T11:32:41.048Z,81.73
2017-11-25T11:35:07.684Z,81.33
2017-11-25T11:37:33.942Z,81.64
2017-11-25T11:40:00.206Z,82.46
2017-11-25T11:42:26.437Z,83.28
2017-11-25T11:44:53.005Z,83.90
2017-11-25T11:47:19.621Z,84.30
2017-11-25T11:49:46.062Z,83.60
2017-11-25T11:52:12.546Z,83.87
2017-11-25T11:54:38.950Z,85.20
2017-11-25T11:57:05.563Z,86.06
2017-11-25T11:59:32.004Z,86.22
2017-11-25T12:01:58.450Z,86.53
2017-11-25T12:04:24.683Z,86.17
2017-11-25T12:06:50.932Z,85.63
2017-11-25T12:09:17.343Z,85.72
2017-11-25T12:11:43.559Z,84.94
2017-11-25T12:14:09.826Z,85.44
2017-11-25T12:16:36.059Z,85.45
2017-11-25T12:19:02.287Z,85.19
2017-11-25T12:21:28.558Z,85.42
2017-11-25T12:23:54.999Z,86.33
2017-11-25T12:26:21.270Z,85.24
2017-11-25T12:28:47.525Z,85.52
2017-11-25T12:31:13.741Z,85.21
2017-11-25T12:33:39.990Z,85.33
2017-11-25T12:36:06.248Z,86.35
2017-11-25T12:38:32.483Z,86.86
2017-11-25T12:40:58.739Z,87.14
2017-11-25T12:43:25.025Z,86.62
2017-11-25T12:45:51.285Z,87.00
2017-11-25T12:48:17.617Z,86.81
2017-11-25T12:50:44.056Z,87.05
2017-11-25T12:53:10.666Z,85.87
2017-11-25T12:55:37.091Z,86.26
2017-11-25T12:58:03.405Z,85.95
2017-11-25T13:00:29.700Z,85.46
2017-11-25T13:02:55.966Z,84.91
2017-11-25T13:05:22.311Z,83.97
2017-11-25T13:07:48.583Z,84.33
2017-11-25T13:10:14.882Z,85.02
2017-11-25T13:12:41.148Z,85.36
2017-11-25T13:15:07.380Z,85.00
2017-11-25T13:17:33.621Z,85.30
2017-11-25T13:19:59.921Z,85.44
2017-11-25T13:22:26.270Z,85.20
2017-11-25T13:24:52.896Z,85.64
2017-11-25T13:27:19.176Z,86.00
2017-11-25T13:29:45.434Z,86.01
2017-11-25T13:32:11.678Z,86.51
2017-11-25T13:34:37.971Z,86.22
2017-11-25T13:37:04.206Z,86.20
2017-11-25T13:39:30.478Z,86.07
2017-11-25T13:41:56.775Z,86.59
2017-11-25T13:44:23.045Z,86.66
2017-11-25T13:46:49.414Z,87.03
2017-11-25T13:49:15.704Z,87.16
2017-11-25T13:51:41.938Z,87.53
2017-11-25T13:54:08.171Z,87.16
2017-11-25T13:56:34.471Z,86.84
2017-11-25T13:59:00.703Z,87.10
2017-11-25T14:01:26.949Z,87.33
2017-11-25T14:03:53.255Z,87.53
2017-11-25T14:06:19.567Z,88.04
2017-11-25T14:08:45.813Z,87.98
2017-11-25T14:11:12.109Z,88.27
2017-11-25T14:13:38.358Z,88.14
2017-11-25T14:16:04.604Z,87.58
2017-11-25T14:18:30.876Z,87.62
2017-11-25T14:20:57.111Z,88.01
2017-11-25T14:23:23.420Z,87.84
2017-11-25T14:25:49.683Z,87.72
2017-11-25T14:28:16.064Z,87.96
2017-11-25T14:30:42.323Z,88.14
2017-11-25T14:33:08.590Z,88.19
2017-11-25T14:35:34.840Z,88.35
2017-11-25T14:38:01.098Z,88.57
2017-11-25T14:40:27.380Z,88.65
2017-11-25T14:42:53.653Z,88.64
2017-11-25T14:45:20.072Z,88.77
2017-11-25T14:47:47.359Z,88.71
2017-11-25T14:50:14.629Z,89.12
2017-11-25T14:52:40.881Z,88.84
2017-11-25T14:55:07.145Z,88.55
2017-11-25T14:57:33.410Z,88.50
2017-11-25T14:59:59.663Z,89.81
2017-11-25T15:02:26.036Z,89.65
2017-11-25T15:04:52.305Z,89.60
2017-11-25T15:07:18.665Z,89.47
2017-11-25T15:09:44.872Z,89.10
2017-11-25T15:12:11.253Z,89.20
2017-11-25T15:14:37.528Z,89.09
2017-11-25T15:17:03.812Z,89.10
2017-11-25T15:19:33.326Z,88.95
2017-11-25T15:21:59.825Z,89.16
2017-11-25T15:24:26.240Z,89.58
2017-11-25T15:26:52.533Z,89.70
2017-11-25T15:29:18.790Z,89.59
2017-11-25T15:31:45.023Z,89.57
2017-11-25T15:34:11.418Z,89.85
2017-11-25T15:36:37.660Z,89.73
2017-11-25T15:39:04.237Z,89.67
2017-11-25T15:41:30.750Z,89.94
2017-11-25T15:43:57.197Z,89.80
2017-11-25T15:46:23.715Z,89.96
2017-11-25T15:48:50.157Z,90.06
2017-11-25T15:51:16.416Z,90.96
2017-11-25T15:53:42.643Z,91.64
2017-11-25T15:56:09.120Z,91.83
2017-11-25T15:58:35.369Z,92.33
2017-11-25T16:01:01.605Z,92.61
2017-11-25T16:03:27.870Z,93.17
2017-11-25T16:05:54.208Z,93.68
2017-11-25T16:08:20.447Z,93.57
2017-11-25T16:10:46.885Z,94.00
2017-11-25T16:13:13.097Z,94.08
2017-11-25T16:15:39.335Z,94.81
2017-11-25T16:18:05.604Z,95.03
2017-11-25T16:20:31.859Z,95.25
2017-11-25T16:22:58.074Z,95.10
2017-11-25T16:25:24.368Z,95.25
2017-11-25T16:27:50.633Z,95.07
2017-11-25T16:30:16.905Z,95.12
2017-11-25T16:32:43.264Z,94.44
2017-11-25T16:35:09.481Z,94.63
2017-11-25T16:37:35.714Z,94.22
2017-11-25T16:40:01.968Z,94.14
2017-11-25T16:42:28.201Z,94.39
2017-11-25T16:44:54.456Z,94.65
2017-11-25T16:47:20.722Z,94.25
2017-11-25T16:49:47.052Z,93.98
2017-11-25T16:52:13.286Z,94.16
2017-11-25T16:54:39.547Z,93.97
2017-11-25T16:57:05.756Z,93.71
2017-11-25T16:59:32.132Z,94.10
2017-11-25T17:01:58.418Z,94.23
2017-11-25T17:04:24.777Z,93.68
2017-11-25T17:06:51.141Z,94.07
2017-11-25T17:09:17.433Z,94.94
2017-11-25T17:11:43.665Z,94.75
2017-11-25T17:14:09.888Z,95.00
2017-11-25T17:16:36.158Z,95.19
2017-11-25T17:19:02.402Z,95.05
2017-11-25T17:21:28.653Z,94.82
2017-11-25T17:23:54.920Z,94.15
2017-11-25T17:26:21.166Z,94.05
2017-11-25T17:28:47.412Z,93.96
2017-11-25T17:31:13.694Z,93.97
2017-11-25T17:33:39.929Z,94.33
2017-11-25T17:36:06.173Z,94.09
2017-11-25T17:38:32.430Z,94.34
2017-11-25T17:40:58.669Z,94.07
2017-11-25T17:43:24.886Z,93.91
2017-11-25T17:45:51.164Z,93.85
2017-11-25T17:48:17.402Z,93.78
2017-11-25T17:50:43.616Z,93.50
2017-11-25T17:53:09.880Z,93.25
2017-11-25T17:55:36.117Z,93.34
2017-11-25T17:58:02.368Z,93.53
2017-11-25T18:00:28.639Z,93.46
2017-11-25T18:02:54.896Z,93.37
2017-11-25T18:05:21.257Z,93.57
2017-11-25T18:07:47.526Z,93.80
2017-11-25T18:10:13.822Z,94.21
2017-11-25T18:12:40.043Z,94.26
2017-11-25T18:15:06.330Z,94.39
2017-11-25T18:17:32.622Z,94.64
2017-11-25T18:19:58.853Z,94.18
2017-11-25T18:22:25.114Z,93.93
2017-11-25T18:24:51.353Z,93.84
2017-11-25T18:27:17.579Z,93.88
2017-11-25T18:29:43.831Z,93.90
2017-11-25T18:32:10.057Z,94.71
2017-11-25T18:34:36.296Z,94.83
2017-11-25T18:37:02.581Z,94.58
2017-11-25T18:39:28.811Z,94.81
2017-11-25T18:41:55.073Z,94.95
2017-11-25T18:44:21.347Z,94.70
2017-11-25T18:46:47.581Z,94.60
2017-11-25T18:49:14.011Z,94.28
2017-11-25T18:51:40.326Z,94.02
2017-11-25T18:54:06.519Z,93.91
2017-11-25T18:56:32.753Z,93.87
2017-11-25T18:58:59.009Z,93.94
2017-11-25T19:01:25.261Z,93.97
2017-11-25T19:03:51.494Z,93.96
2017-11-25T19:06:17.757Z,94.19
2017-11-25T19:08:43.989Z,94.02
2017-11-25T19:11:10.230Z,93.66
2017-11-25T19:13:36.518Z,93.83
2017-11-25T19:16:02.751Z,94.41
2017-11-25T19:18:29.123Z,94.32
2017-11-25T19:20:55.590Z,94.11
2017-11-25T19:23:21.861Z,93.71
2017-11-25T19:25:48.086Z,93.49
2017-11-25T19:28:14.373Z,93.68
2017-11-25T19:30:40.678Z,93.86
2017-11-25T19:33:06.893Z,93.47
2017-11-25T19:35:33.187Z,93.43
2017-11-25T19:37:59.416Z,93.82
2017-11-25T19:40:25.642Z,93.70
2017-11-25T19:42:51.898Z,93.87
2017-11-25T19:45:18.122Z,93.94
2017-11-25T19:47:44.338Z,94.14
2017-11-25T19:50:10.579Z,94.18
2017-11-25T19:52:36.828Z,94.30
2017-11-25T19:55:03.080Z,95.01
2017-11-25T19:57:29.346Z,94.92
2017-11-25T19:59:55.581Z,94.81
2017-11-25T20:02:21.829Z,94.63
2017-11-25T20:04:48.231Z,94.60
2017-11-25T20:07:14.485Z,94.34
2017-11-25T20:09:40.758Z,94.22
2017-11-25T20:12:07.060Z,94.01
2017-11-25T20:14:33.299Z,94.45
2017-11-25T20:16:59.517Z,93.74
2017-11-25T20:19:25.812Z,93.57
2017-11-25T20:21:52.029Z,93.67
2017-11-25T20:24:18.373Z,93.72
2017-11-25T20:26:44.674Z,93.90
2017-11-25T20:29:10.918Z,94.63
2017-11-25T20:31:37.154Z,94.40
2017-11-25T20:34:03.425Z,94.44
2017-11-25T20:36:29.651Z,94.28
2017-11-25T20:38:55.901Z,94.34
2017-11-25T20:41:22.172Z,94.09
2017-11-25T20:43:48.442Z,93.80
2017-11-25T20:46:14.674Z,93.96
2017-11-25T20:48:40.955Z,93.96
2017-11-25T20:51:07.180Z,93.68
2017-11-25T20:53:33.480Z,93.86
2017-11-25T20:55:59.755Z,93.76
2017-11-25T20:58:25.981Z,93.79
2017-11-25T21:00:52.233Z,93.46
2017-11-25T21:03:18.623Z,94.24
2017-11-25T21:05:44.836Z,93.86
2017-11-25T21:08:11.082Z,94.31
2017-11-25T21:10:37.423Z,94.62
2017-11-25T21:13:03.660Z,94.61
2017-11-25T21:15:29.962Z,94.15
2017-11-25T21:17:56.221Z,94.12
2017-11-25T21:20:22.468Z,94.12
2017-11-25T21:22:48.693Z,93.89
2017-11-25T21:25:15.015Z,93.40
2017-11-25T21:27:41.262Z,93.15
2017-11-25T21:30:07.532Z,93.31
2017-11-25T21:32:33.802Z,93.43
2017-11-25T21:35:00.059Z,93.10
2017-11-25T21:37:26.297Z,93.25
2017-11-25T21:39:52.569Z,93.26
2017-11-25T21:42:18.802Z,93.27
2017-11-25T21:44:45.045Z,93.25
2017-11-25T21:47:11.315Z,92.96
2017-11-25T21:49:37.609Z,92.68
2017-11-25T21:52:03.847Z,93.02
2017-11-25T21:54:30.071Z,93.22
2017-11-25T21:56:56.339Z,93.34
2017-11-25T21:59:22.586Z,93.30
2017-11-25T22:01:48.925Z,93.24
2017-11-25T22:04:15.173Z,92.86
2017-11-25T22:06:41.426Z,92.91
2017-11-25T22:09:07.658Z,92.91
2017-11-25T22:11:33.936Z,92.62
2017-11-25T22:14:00.273Z,92.67
2017-11-25T22:16:26.506Z,92.75
2017-11-25T22:18:52.779Z,92.86
2017-11-25T22:21:19.014Z,92.85
2017-11-25T22:23:45.234Z,92.58
2017-11-25T22:26:11.501Z,92.39
2017-11-25T22:28:37.713Z,92.07
2017-11-25T22:31:03.959Z,92.09
2017-11-25T22:33:30.220Z,92.22
2017-11-25T22:35:56.461Z,92.60
2017-11-25T22:38:22.690Z,92.62
2017-11-25T22:40:48.977Z,92.42
2017-11-25T22:43:15.219Z,92.69
2017-11-25T22:45:41.536Z,93.54
2017-11-25T22:48:07.819Z,93.54
2017-11-25T22:50:34.057Z,93.83
2017-11-25T22:53:00.268Z,93.94
2017-11-25T22:55:26.524Z,94.61
2017-11-25T22:57:52.799Z,95.27
2017-11-25T23:00:19.139Z,95.27
2017-11-25T23:02:45.397Z,95.28
2017-11-25T23:05:11.728Z,96.01
2017-11-25T23:07:37.937Z,96.00
2017-11-25T23:10:04.204Z,96.18
2017-11-25T23:12:30.481Z,96.55
2017-11-25T23:14:56.696Z,96.51
2017-11-25T23:17:22.954Z,96.19
2017-11-25T23:19:49.169Z,95.97
2017-11-25T23:22:15.489Z,96.22
2017-11-25T23:24:41.782Z,96.49
2017-11-25T23:27:08.157Z,96.33
2017-11-25T23:29:34.385Z,96.83
2017-11-25T23:32:00.650Z,97.01
2017-11-25T23:34:26.881Z,96.97
2017-11-25T23:36:53.125Z,96.97
2017-11-25T23:39:19.433Z,96.54
2017-11-25T23:41:45.654Z,96.33
2017-11-25T23:44:11.884Z,96.30
2017-11-25T23:46:38.180Z,96.13
2017-11-25T23:49:04.424Z,96.09
2017-11-25T23:51:30.655Z,95.75
2017-11-25T23:53:56.917Z,95.53
2017-11-25T23:56:23.172Z,95.31
2017-11-25T23:58:49.413Z,95.19
